Time;durP1;ratioP1;P1;durP2;ratioP2;P2;SDS_P1;SDS_P2;PMS_P1;PMS_P2;Temp;Humidity;BMP_temperature;BMP_pressure;BME280_temperature;BME280_humidity;BME280_pressure;Samples;Min_cycle;Max_cycle;Signal;HPM_P1;HPM_P2
2022/03/07 00:00:09;;;;;;;31.15;11.23;;;;;;;;;;4983979;28;20117;-60
2022/03/07 00:02:34;;;;;;;30.50;12.45;;;;;;;;;;4983213;28;20037;-58
2022/03/07 00:05:00;;;;;;;23.33;9.80;;;;;;;;;;4982853;28;20075;-58
2022/03/07 00:07:25;;;;;;;28.35;10.07;;;;;;;;;;4981537;28;20586;-58
2022/03/07 00:09:51;;;;;;;23.55;10.05;;;;;;;;;;4979962;28;20485;-58
2022/03/07 00:12:16;;;;;;;25.17;10.60;;;;;;;;;;4981056;28;20053;-59
2022/03/07 00:14:42;;;;;;;27.27;11.82;;;;;;;;;;4979617;28;20052;-59
2022/03/07 00:17:07;;;;;;;29.88;12.05;;;;;;;;;;4996839;28;20041;-58
2022/03/07 00:19:33;;;;;;;26.27;9.50;;;;;;;;;;4979690;28;20089;-60
2022/03/07 00:21:58;;;;;;;22.73;9.15;;;;;;;;;;4978504;28;20057;-58
2022/03/07 00:24:24;;;;;;;26.95;10.05;;;;;;;;;;4974028;28;20073;-59
2022/03/07 00:26:49;;;;;;;21.40;10.50;;;;;;;;;;4983340;28;20404;-57
2022/03/07 00:29:15;;;;;;;25.98;9.18;;;;;;;;;;4983085;28;20042;-57
2022/03/07 00:31:40;;;;;;;22.95;8.48;;;;;;;;;;4993822;28;20541;-58
2022/03/07 00:34:06;;;;;;;29.25;8.32;;;;;;;;;;4985007;28;20022;-59
2022/03/07 00:36:31;;;;;;;22.42;8.05;;;;;;;;;;4984553;28;20494;-58
2022/03/07 00:38:57;;;;;;;22.55;8.15;;;;;;;;;;4980778;28;20030;-58
2022/03/07 00:41:22;;;;;;;17.70;7.32;;;;;;;;;;4980207;28;20133;-58
2022/03/07 00:43:48;;;;;;;20.58;7.00;;;;;;;;;;4977404;28;20041;-58
2022/03/07 00:46:13;;;;;;;20.88;6.80;;;;;;;;;;4980580;28;20117;-58
2022/03/07 00:48:39;;;;;;;27.98;7.38;;;;;;;;;;4979987;28;20478;-58
2022/03/07 00:51:04;;;;;;;26.13;7.78;;;;;;;;;;4980332;28;20441;-58
2022/03/07 00:53:30;;;;;;;22.08;7.25;;;;;;;;;;4978278;28;20042;-58
2022/03/07 00:55:55;;;;;;;18.45;7.35;;;;;;;;;;4976553;28;20125;-59
2022/03/07 00:58:22;;;;;;;23.60;7.43;;;;;;;;;;4977960;28;20022;-58
2022/03/07 01:00:49;;;;;;;27.67;7.53;;;;;;;;;;4966159;28;20191;-58
2022/03/07 01:03:15;;;;;;;19.60;7.22;;;;;;;;;;4963941;28;20031;-59
2022/03/07 01:05:41;;;;;;;13.77;6.93;;;;;;;;;;4957738;28;20073;-58
2022/03/07 01:08:08;;;;;;;19.00;7.05;;;;;;;;;;4961355;28;20119;-58
2022/03/07 01:10:34;;;;;;;17.70;7.05;;;;;;;;;;4961368;28;20398;-58
2022/03/07 01:13:00;;;;;;;23.38;7.00;;;;;;;;;;4958990;28;20102;-58
2022/03/07 01:15:25;;;;;;;19.77;6.65;;;;;;;;;;4961632;28;20525;-58
2022/03/07 01:17:53;;;;;;;21.33;7.57;;;;;;;;;;4964459;28;20046;-58
2022/03/07 01:20:19;;;;;;;22.88;7.50;;;;;;;;;;4960803;28;20030;-58
2022/03/07 01:22:44;;;;;;;21.15;7.43;;;;;;;;;;4960647;28;20027;-58
2022/03/07 01:25:10;;;;;;;21.38;7.15;;;;;;;;;;4964041;28;20026;-58
2022/03/07 01:27:36;;;;;;;23.15;8.40;;;;;;;;;;4964065;28;20168;-58
2022/03/07 01:30:03;;;;;;;24.83;8.10;;;;;;;;;;4963433;28;20035;-57
2022/03/07 01:32:29;;;;;;;26.02;7.35;;;;;;;;;;4956729;28;20578;-58
2022/03/07 01:34:54;;;;;;;20.30;8.15;;;;;;;;;;4963928;28;20034;-58
2022/03/07 01:37:20;;;;;;;26.73;7.90;;;;;;;;;;4958722;28;20190;-58
2022/03/07 01:39:45;;;;;;;24.98;7.90;;;;;;;;;;4962307;28;20121;-58
2022/03/07 01:42:11;;;;;;;22.48;7.80;;;;;;;;;;4960410;28;20065;-58
2022/03/07 01:44:37;;;;;;;26.42;7.95;;;;;;;;;;4962316;28;20549;-58
2022/03/07 01:47:04;;;;;;;20.10;6.75;;;;;;;;;;4958473;28;20086;-59
2022/03/07 01:49:29;;;;;;;15.90;5.57;;;;;;;;;;4959978;28;20491;-58
2022/03/07 01:51:56;;;;;;;20.67;6.43;;;;;;;;;;4964842;28;20085;-58
2022/03/07 01:54:22;;;;;;;22.38;6.18;;;;;;;;;;4953971;28;20035;-59
2022/03/07 01:56:49;;;;;;;18.35;5.50;;;;;;;;;;4964178;28;20042;-57
2022/03/07 01:59:20;;;;;;;18.55;5.93;;;;;;;;;;4962590;28;20030;-58
2022/03/07 02:01:46;;;;;;;19.13;5.72;;;;;;;;;;4955600;28;20477;-59
2022/03/07 02:04:11;;;;;;;24.23;7.05;;;;;;;;;;4959587;28;20034;-59
2022/03/07 02:06:39;;;;;;;22.10;6.05;;;;;;;;;;4959782;28;20031;-59
2022/03/07 02:09:06;;;;;;;17.00;6.78;;;;;;;;;;4960142;28;20149;-58
2022/03/07 02:11:32;;;;;;;19.83;7.28;;;;;;;;;;4961494;28;20113;-58
2022/03/07 02:14:10;;;;;;;20.23;6.60;;;;;;;;;;4964532;28;20035;-59
2022/03/07 02:16:36;;;;;;;20.33;6.13;;;;;;;;;;4959723;28;20027;-59
2022/03/07 02:19:01;;;;;;;14.98;6.30;;;;;;;;;;4964352;28;20082;-59
2022/03/07 02:21:29;;;;;;;19.55;6.68;;;;;;;;;;4961014;28;20361;-59
2022/03/07 02:23:54;;;;;;;28.67;6.75;;;;;;;;;;4954713;28;20030;-59
2022/03/07 02:26:19;;;;;;;16.75;6.70;;;;;;;;;;4958227;28;20045;-59
2022/03/07 02:28:46;;;;;;;17.88;7.15;;;;;;;;;;4959509;28;20117;-58
2022/03/07 02:31:17;;;;;;;19.67;6.15;;;;;;;;;;4960211;28;20034;-59
2022/03/07 02:33:42;;;;;;;22.33;6.60;;;;;;;;;;4958460;28;20039;-59
2022/03/07 02:36:08;;;;;;;19.52;7.20;;;;;;;;;;4959941;28;20031;-58
2022/03/07 02:38:34;;;;;;;18.33;6.57;;;;;;;;;;4963023;28;20066;-59
2022/03/07 02:41:00;;;;;;;19.60;6.55;;;;;;;;;;4956672;28;20054;-58
2022/03/07 02:43:26;;;;;;;18.38;6.28;;;;;;;;;;4959315;28;20035;-58
2022/03/07 02:45:52;;;;;;;18.73;6.30;;;;;;;;;;4960922;28;20043;-59
2022/03/07 02:48:18;;;;;;;23.35;7.07;;;;;;;;;;4958978;28;20126;-59
2022/03/07 02:50:46;;;;;;;19.40;6.15;;;;;;;;;;4958603;28;20161;-58
2022/03/07 02:53:13;;;;;;;15.40;6.43;;;;;;;;;;4961365;28;20039;-59
2022/03/07 02:55:38;;;;;;;25.08;7.10;;;;;;;;;;4958626;28;20405;-59
2022/03/07 02:58:04;;;;;;;20.25;5.20;;;;;;;;;;4961004;28;20043;-59
2022/03/07 03:00:30;;;;;;;10.15;4.05;;;;;;;;;;4961518;28;20101;-59
2022/03/07 03:02:56;;;;;;;18.52;4.20;;;;;;;;;;4959339;28;20043;-59
2022/03/07 03:05:23;;;;;;;7.60;2.67;;;;;;;;;;4964087;28;20109;-59
2022/03/07 03:07:50;;;;;;;13.88;2.67;;;;;;;;;;4958453;28;20082;-59
2022/03/07 03:10:17;;;;;;;7.65;2.20;;;;;;;;;;4962469;28;20527;-59
2022/03/07 03:12:43;;;;;;;8.05;1.80;;;;;;;;;;4961797;28;20453;-59
2022/03/07 03:15:09;;;;;;;5.15;1.60;;;;;;;;;;4960619;28;20545;-58
2022/03/07 03:17:37;;;;;;;5.03;1.50;;;;;;;;;;4967727;28;20050;-58
2022/03/07 03:20:03;;;;;;;9.23;1.92;;;;;;;;;;4964918;28;20039;-57
2022/03/07 03:22:29;;;;;;;5.28;1.95;;;;;;;;;;4958900;28;20041;-58
2022/03/07 03:24:54;;;;;;;5.05;1.38;;;;;;;;;;4965926;28;20397;-58
2022/03/07 03:27:20;;;;;;;10.57;2.17;;;;;;;;;;4957753;28;20031;-58
2022/03/07 03:29:45;;;;;;;4.15;1.50;;;;;;;;;;4964663;28;20197;-58
2022/03/07 03:32:11;;;;;;;8.60;1.88;;;;;;;;;;4966441;28;20038;-58
2022/03/07 03:34:37;;;;;;;5.95;1.50;;;;;;;;;;4966186;28;20490;-58
2022/03/07 03:37:02;;;;;;;10.30;1.33;;;;;;;;;;4964161;28;20043;-59
2022/03/07 03:39:28;;;;;;;8.90;1.40;;;;;;;;;;4965991;28;20034;-59
2022/03/07 03:41:53;;;;;;;4.32;1.20;;;;;;;;;;4965716;28;20034;-58
2022/03/07 03:44:19;;;;;;;5.13;1.30;;;;;;;;;;4962707;28;20414;-58
2022/03/07 03:46:44;;;;;;;4.72;1.10;;;;;;;;;;4963895;28;20116;-58
2022/03/07 03:49:10;;;;;;;9.50;0.90;;;;;;;;;;4961755;28;20042;-58
2022/03/07 03:51:36;;;;;;;12.10;1.60;;;;;;;;;;4961160;28;20078;-58
2022/03/07 03:54:01;;;;;;;4.78;1.30;;;;;;;;;;4963496;28;20034;-58
2022/03/07 03:56:27;;;;;;;10.43;1.60;;;;;;;;;;4958492;28;20624;-58
2022/03/07 03:58:52;;;;;;;9.25;1.48;;;;;;;;;;4956477;28;20922;-58
2022/03/07 04:01:18;;;;;;;6.40;1.10;;;;;;;;;;4957251;28;20122;-58
2022/03/07 04:03:43;;;;;;;8.32;1.35;;;;;;;;;;4959160;28;20038;-58
2022/03/07 04:06:09;;;;;;;8.40;1.40;;;;;;;;;;4966947;28;20085;-58
2022/03/07 04:08:50;;;;;;;14.98;1.02;;;;;;;;;;4962850;28;20042;-59
2022/03/07 04:11:16;;;;;;;9.00;1.25;;;;;;;;;;4960789;28;20537;-59
2022/03/07 04:13:42;;;;;;;4.22;0.90;;;;;;;;;;4945136;28;20405;-58
2022/03/07 04:16:07;;;;;;;11.60;1.27;;;;;;;;;;4962790;28;20105;-59
2022/03/07 04:18:33;;;;;;;8.55;1.58;;;;;;;;;;4962609;28;20241;-59
2022/03/07 04:20:58;;;;;;;5.65;1.10;;;;;;;;;;4961634;28;20438;-58
2022/03/07 04:23:24;;;;;;;4.60;1.00;;;;;;;;;;4960015;28;20038;-58
2022/03/07 04:25:49;;;;;;;7.55;1.42;;;;;;;;;;4963307;28;20062;-59
2022/03/07 04:28:16;;;;;;;5.38;0.88;;;;;;;;;;4962962;28;20031;-58
2022/03/07 04:30:42;;;;;;;7.82;1.70;;;;;;;;;;4960981;28;20050;-58
2022/03/07 04:33:08;;;;;;;6.05;1.42;;;;;;;;;;4966343;28;20513;-59
2022/03/07 04:35:35;;;;;;;9.23;1.27;;;;;;;;;;4965211;28;20045;-59
2022/03/07 04:38:01;;;;;;;13.48;1.60;;;;;;;;;;4963423;28;20109;-59
2022/03/07 04:40:28;;;;;;;8.18;1.60;;;;;;;;;;4960101;28;20030;-59
2022/03/07 04:42:56;;;;;;;7.03;1.25;;;;;;;;;;4965254;28;20110;-59
2022/03/07 04:45:22;;;;;;;2.88;0.93;;;;;;;;;;4958018;28;20542;-59
2022/03/07 04:47:48;;;;;;;9.32;1.50;;;;;;;;;;4962509;28;20056;-58
2022/03/07 04:50:13;;;;;;;5.90;1.08;;;;;;;;;;4963451;28;20038;-58
2022/03/07 04:52:41;;;;;;;4.63;2.05;;;;;;;;;;4961433;28;20030;-59
2022/03/07 04:55:08;;;;;;;8.07;0.98;;;;;;;;;;4962123;28;20786;-59
2022/03/07 04:57:33;;;;;;;10.13;1.45;;;;;;;;;;4961151;28;20054;-59
2022/03/07 04:59:59;;;;;;;6.60;1.02;;;;;;;;;;4961540;28;20023;-59
2022/03/07 05:02:24;;;;;;;8.63;1.77;;;;;;;;;;4964452;28;20480;-59
2022/03/07 05:04:50;;;;;;;14.15;1.40;;;;;;;;;;4958637;28;20027;-59
2022/03/07 05:07:15;;;;;;;6.53;1.42;;;;;;;;;;4958776;28;20779;-59
2022/03/07 05:09:41;;;;;;;8.25;1.35;;;;;;;;;;4963591;28;20118;-58
2022/03/07 05:12:07;;;;;;;9.02;2.08;;;;;;;;;;4963071;28;20038;-59
2022/03/07 05:14:32;;;;;;;8.23;1.50;;;;;;;;;;4962011;28;20042;-59
2022/03/07 05:16:57;;;;;;;7.35;1.25;;;;;;;;;;4958493;28;20023;-58
2022/03/07 05:19:23;;;;;;;7.25;1.38;;;;;;;;;;4963467;28;20027;-59
2022/03/07 05:21:49;;;;;;;6.32;1.63;;;;;;;;;;4965224;28;20325;-59
2022/03/07 05:24:14;;;;;;;10.48;1.23;;;;;;;;;;4963569;28;20478;-59
2022/03/07 05:26:40;;;;;;;4.72;1.10;;;;;;;;;;4962448;28;20029;-59
2022/03/07 05:29:07;;;;;;;8.23;1.20;;;;;;;;;;4960937;28;20478;-58
2022/03/07 05:31:32;;;;;;;3.92;1.35;;;;;;;;;;4957543;28;20043;-58
2022/03/07 05:33:58;;;;;;;4.88;1.67;;;;;;;;;;4957860;28;20038;-59
2022/03/07 05:36:23;;;;;;;5.07;1.10;;;;;;;;;;4960674;28;20035;-58
2022/03/07 05:38:49;;;;;;;11.90;1.23;;;;;;;;;;4959514;28;20050;-58
2022/03/07 05:41:14;;;;;;;8.77;1.33;;;;;;;;;;4962947;28;20043;-59
2022/03/07 05:43:40;;;;;;;10.38;1.70;;;;;;;;;;4961357;28;20039;-58
2022/03/07 05:46:06;;;;;;;11.40;1.45;;;;;;;;;;4963377;28;20533;-59
2022/03/07 05:48:32;;;;;;;6.60;1.92;;;;;;;;;;4960165;28;20067;-59
2022/03/07 05:50:58;;;;;;;5.82;1.25;;;;;;;;;;4963718;28;20120;-58
2022/03/07 05:53:24;;;;;;;3.53;0.68;;;;;;;;;;4962962;28;20505;-59
2022/03/07 05:55:50;;;;;;;8.55;1.08;;;;;;;;;;4960267;28;20038;-58
2022/03/07 05:58:16;;;;;;;3.13;1.02;;;;;;;;;;4961811;28;20034;-58
2022/03/07 06:00:42;;;;;;;8.10;1.08;;;;;;;;;;4960331;28;20038;-59
2022/03/07 06:03:07;;;;;;;7.63;1.40;;;;;;;;;;4963260;28;20490;-58
2022/03/07 06:05:33;;;;;;;4.32;0.85;;;;;;;;;;4956901;28;20429;-58
2022/03/07 06:07:59;;;;;;;5.38;1.17;;;;;;;;;;4960902;28;20051;-58
2022/03/07 06:10:25;;;;;;;4.70;0.82;;;;;;;;;;4955400;28;20070;-58
2022/03/07 06:12:50;;;;;;;7.53;1.27;;;;;;;;;;4959565;28;20069;-58
2022/03/07 06:15:16;;;;;;;4.35;1.80;;;;;;;;;;4962198;28;20074;-58
2022/03/07 06:17:55;;;;;;;7.80;0.77;;;;;;;;;;4961467;28;20049;-58
2022/03/07 06:20:21;;;;;;;6.75;1.15;;;;;;;;;;4951315;28;20110;-58
2022/03/07 06:22:47;;;;;;;3.50;1.45;;;;;;;;;;4963108;28;20034;-58
2022/03/07 06:25:13;;;;;;;13.75;2.25;;;;;;;;;;4962190;28;20470;-58
2022/03/07 06:27:38;;;;;;;6.05;1.33;;;;;;;;;;4963407;28;20063;-58
2022/03/07 06:30:05;;;;;;;5.03;1.02;;;;;;;;;;4961953;28;20026;-59
2022/03/07 06:32:30;;;;;;;8.93;1.30;;;;;;;;;;4958488;28;20054;-57
2022/03/07 06:34:56;;;;;;;4.75;1.08;;;;;;;;;;4963283;28;20038;-60
2022/03/07 06:37:23;;;;;;;4.85;1.10;;;;;;;;;;4956943;28;20031;-58
2022/03/07 06:39:48;;;;;;;12.57;1.50;;;;;;;;;;4960327;28;20027;-59
2022/03/07 06:42:14;;;;;;;7.75;1.25;;;;;;;;;;4965312;28;20031;-59
2022/03/07 06:44:40;;;;;;;7.65;1.50;;;;;;;;;;4960550;28;20058;-59
2022/03/07 06:47:10;;;;;;;9.25;1.33;;;;;;;;;;4960147;28;20027;-59
2022/03/07 06:49:35;;;;;;;10.75;1.27;;;;;;;;;;4958615;28;20027;-59
2022/03/07 06:52:02;;;;;;;5.88;1.08;;;;;;;;;;4966148;28;20031;-58
2022/03/07 06:54:28;;;;;;;13.43;1.23;;;;;;;;;;4964724;28;20049;-59
2022/03/07 06:56:54;;;;;;;9.85;1.42;;;;;;;;;;4958966;28;20045;-58
2022/03/07 06:59:19;;;;;;;10.85;1.10;;;;;;;;;;4965111;28;20039;-58
2022/03/07 07:01:45;;;;;;;7.70;1.40;;;;;;;;;;4959527;28;20486;-59
2022/03/07 07:04:10;;;;;;;10.35;1.48;;;;;;;;;;4961561;28;20070;-59
2022/03/07 07:06:36;;;;;;;13.18;2.22;;;;;;;;;;4961914;28;20042;-59
2022/03/07 07:09:01;;;;;;;11.13;1.50;;;;;;;;;;4958609;28;20047;-59
2022/03/07 07:11:27;;;;;;;9.20;1.45;;;;;;;;;;4962286;28;20058;-58
2022/03/07 07:13:52;;;;;;;6.43;1.13;;;;;;;;;;4962763;28;20031;-58
2022/03/07 07:16:18;;;;;;;8.02;1.40;;;;;;;;;;4958585;28;20038;-58
2022/03/07 07:18:43;;;;;;;8.32;1.15;;;;;;;;;;4962450;28;20031;-58
2022/03/07 07:21:09;;;;;;;3.00;0.90;;;;;;;;;;4960584;28;20066;-58
2022/03/07 07:23:35;;;;;;;1.50;0.77;;;;;;;;;;4960763;28;20065;-58
2022/03/07 07:26:01;;;;;;;7.10;1.35;;;;;;;;;;4962400;28;20030;-59
2022/03/07 07:28:27;;;;;;;8.88;0.80;;;;;;;;;;4958461;28;20038;-58
2022/03/07 07:30:52;;;;;;;5.93;0.80;;;;;;;;;;4956363;28;20490;-59
2022/03/07 07:33:18;;;;;;;8.95;1.40;;;;;;;;;;4963046;28;20085;-59
2022/03/07 07:35:43;;;;;;;7.32;1.45;;;;;;;;;;4958243;28;20039;-59
2022/03/07 07:38:09;;;;;;;11.15;1.48;;;;;;;;;;4958161;28;20106;-58
2022/03/07 07:40:35;;;;;;;8.90;1.48;;;;;;;;;;4960585;28;20029;-60
2022/03/07 07:43:00;;;;;;;4.88;1.27;;;;;;;;;;4963989;28;20445;-59
2022/03/07 07:45:26;;;;;;;5.45;0.95;;;;;;;;;;4961941;28;20485;-58
2022/03/07 07:47:52;;;;;;;6.90;1.05;;;;;;;;;;4958801;28;20646;-58
2022/03/07 07:50:19;;;;;;;2.78;1.00;;;;;;;;;;4963235;28;20042;-58
2022/03/07 07:52:45;;;;;;;5.90;1.13;;;;;;;;;;4965596;28;20093;-58
2022/03/07 07:55:11;;;;;;;4.40;1.05;;;;;;;;;;4961313;28;20031;-59
2022/03/07 07:57:36;;;;;;;5.57;1.10;;;;;;;;;;4963293;28;20034;-59
2022/03/07 08:00:04;;;;;;;6.32;1.13;;;;;;;;;;4958423;28;20039;-59
2022/03/07 08:02:29;;;;;;;3.65;0.73;;;;;;;;;;4962116;28;20038;-60
2022/03/07 08:04:55;;;;;;;6.25;1.05;;;;;;;;;;4962282;28;20031;-60
2022/03/07 08:07:20;;;;;;;13.38;1.77;;;;;;;;;;4962998;28;20325;-58
2022/03/07 08:09:45;;;;;;;9.82;1.00;;;;;;;;;;4961060;28;20026;-59
2022/03/07 08:12:12;;;;;;;14.18;1.50;;;;;;;;;;4965126;28;20533;-59
2022/03/07 08:14:38;;;;;;;18.00;2.42;;;;;;;;;;4963820;28;20046;-58
2022/03/07 08:17:05;;;;;;;4.68;1.05;;;;;;;;;;4962095;28;20663;-59
2022/03/07 08:19:31;;;;;;;2.92;0.85;;;;;;;;;;4960552;28;20027;-58
2022/03/07 08:21:56;;;;;;;7.75;0.68;;;;;;;;;;4959334;28;20057;-59
2022/03/07 08:24:23;;;;;;;7.43;1.08;;;;;;;;;;4955683;28;20137;-59
2022/03/07 08:26:48;;;;;;;5.35;1.13;;;;;;;;;;4961896;28;20318;-58
2022/03/07 08:29:14;;;;;;;8.15;1.00;;;;;;;;;;4960163;28;20034;-59
2022/03/07 08:31:39;;;;;;;7.95;0.88;;;;;;;;;;4961068;28;20056;-59
2022/03/07 08:34:05;;;;;;;6.38;0.88;;;;;;;;;;4964084;28;20053;-59
2022/03/07 08:36:32;;;;;;;11.90;1.25;;;;;;;;;;4962500;28;20125;-59
2022/03/07 08:38:57;;;;;;;7.40;0.90;;;;;;;;;;4963589;28;20035;-59
2022/03/07 08:41:23;;;;;;;3.97;1.10;;;;;;;;;;4962846;28;20410;-59
2022/03/07 08:43:50;;;;;;;14.40;1.00;;;;;;;;;;4964053;28;20510;-60
2022/03/07 08:46:15;;;;;;;3.35;0.80;;;;;;;;;;4963069;28;20069;-59
2022/03/07 08:48:41;;;;;;;10.18;1.38;;;;;;;;;;4965323;28;20070;-59
2022/03/07 08:51:06;;;;;;;13.30;1.08;;;;;;;;;;4962870;28;20039;-58
2022/03/07 08:53:32;;;;;;;6.43;0.70;;;;;;;;;;4964323;28;20040;-57
2022/03/07 08:55:57;;;;;;;7.85;1.17;;;;;;;;;;4966347;28;20093;-59
2022/03/07 08:58:23;;;;;;;24.25;1.58;;;;;;;;;;4964861;28;20101;-59
2022/03/07 09:00:48;;;;;;;5.03;0.77;;;;;;;;;;4957628;28;20033;-58
2022/03/07 09:03:14;;;;;;;2.13;0.80;;;;;;;;;;4963630;28;20109;-58
2022/03/07 09:05:39;;;;;;;10.32;1.30;;;;;;;;;;4957882;28;20572;-59
2022/03/07 09:08:05;;;;;;;21.90;1.52;;;;;;;;;;4958964;28;20413;-61
2022/03/07 09:10:31;;;;;;;20.08;1.85;;;;;;;;;;4961689;28;20177;-58
2022/03/07 09:12:56;;;;;;;10.00;1.23;;;;;;;;;;4957736;28;20073;-58
2022/03/07 09:15:22;;;;;;;5.60;0.77;;;;;;;;;;4959885;28;20097;-58
2022/03/07 09:17:47;;;;;;;7.22;1.15;;;;;;;;;;4958329;28;20456;-58
2022/03/07 09:20:13;;;;;;;14.05;0.88;;;;;;;;;;4959679;28;20037;-58
2022/03/07 09:22:39;;;;;;;7.78;1.10;;;;;;;;;;4957052;28;20034;-58
2022/03/07 09:25:06;;;;;;;10.82;1.73;;;;;;;;;;4962895;28;20133;-58
2022/03/07 09:27:32;;;;;;;7.90;1.10;;;;;;;;;;4961594;28;20043;-59
2022/03/07 09:29:58;;;;;;;16.52;1.92;;;;;;;;;;4959119;28;20229;-59
2022/03/07 09:32:26;;;;;;;25.30;4.20;;;;;;;;;;4957191;28;20221;-59
2022/03/07 09:34:52;;;;;;;18.67;2.20;;;;;;;;;;4964040;28;20432;-58
2022/03/07 09:37:18;;;;;;;14.77;2.35;;;;;;;;;;4965445;28;20033;-58
2022/03/07 09:39:43;;;;;;;14.60;1.45;;;;;;;;;;4956030;28;20049;-59
2022/03/07 09:42:09;;;;;;;12.07;1.27;;;;;;;;;;4959414;28;20037;-59
2022/03/07 09:44:35;;;;;;;7.47;1.42;;;;;;;;;;4959621;28;20085;-59
2022/03/07 09:47:03;;;;;;;18.77;3.50;;;;;;;;;;4958439;28;20030;-59
2022/03/07 09:49:29;;;;;;;30.42;1.77;;;;;;;;;;4956503;28;20035;-58
2022/03/07 09:51:54;;;;;;;16.88;3.28;;;;;;;;;;4956327;28;20055;-59
2022/03/07 09:54:21;;;;;;;11.13;1.73;;;;;;;;;;4956314;28;20066;-59
2022/03/07 09:56:46;;;;;;;12.10;1.75;;;;;;;;;;4955982;28;20038;-58
2022/03/07 09:59:12;;;;;;;10.98;1.58;;;;;;;;;;4961649;28;20031;-59
2022/03/07 10:01:38;;;;;;;9.20;1.50;;;;;;;;;;4959562;28;20482;-57
2022/03/07 10:04:06;;;;;;;11.55;1.48;;;;;;;;;;4957463;28;20038;-58
2022/03/07 10:06:32;;;;;;;14.40;1.17;;;;;;;;;;4963532;28;20126;-59
2022/03/07 10:08:59;;;;;;;6.88;1.73;;;;;;;;;;4954773;28;20081;-59
2022/03/07 10:11:26;;;;;;;10.15;1.65;;;;;;;;;;4964376;28;20093;-59
2022/03/07 10:13:53;;;;;;;9.00;1.00;;;;;;;;;;4960673;28;20180;-59
2022/03/07 10:16:20;;;;;;;14.00;1.23;;;;;;;;;;4960727;28;20031;-59
2022/03/07 10:18:53;;;;;;;7.38;1.38;;;;;;;;;;4960144;28;20033;-58
2022/03/07 10:21:26;;;;;;;6.60;1.42;;;;;;;;;;4960897;28;20054;-59
2022/03/07 10:23:52;;;;;;;;;;;;;;;;;;4953745;28;20470;-59
2022/03/07 10:26:18;;;;;;;6.03;1.42;;;;;;;;;;4966682;28;20455;-58
2022/03/07 10:28:51;;;;;;;9.95;1.40;;;;;;;;;;4966353;28;20027;-58
2022/03/07 10:31:20;;;;;;;4.82;1.13;;;;;;;;;;4962115;28;20037;-58
2022/03/07 10:33:48;;;;;;;12.00;1.30;;;;;;;;;;4981093;28;20043;-59
2022/03/07 10:36:15;;;;;;;8.27;1.25;;;;;;;;;;4966881;28;20350;-58
2022/03/07 10:38:43;;;;;;;5.65;1.05;;;;;;;;;;4961035;28;20129;-58
2022/03/07 10:41:09;;;;;;;7.93;0.95;;;;;;;;;;4962029;28;20035;-58
2022/03/07 10:43:45;;;;;;;9.27;1.00;;;;;;;;;;4963580;28;20485;-58
2022/03/07 10:46:24;;;;;;;4.38;1.08;;;;;;;;;;4963768;28;20157;-59
2022/03/07 10:48:50;;;;;;;11.98;1.35;;;;;;;;;;4966300;28;20081;-59
2022/03/07 10:51:17;;;;;;;11.20;1.38;;;;;;;;;;4967314;28;20035;-58
2022/03/07 10:53:43;;;;;;;12.80;1.10;;;;;;;;;;4967337;28;20063;-59
2022/03/07 10:56:12;;;;;;;15.60;1.20;;;;;;;;;;4968555;28;20606;-59
2022/03/07 10:58:48;;;;;;;18.40;1.92;;;;;;;;;;4967619;28;20030;-59
2022/03/07 11:01:13;;;;;;;11.63;1.75;;;;;;;;;;4967407;28;20109;-59
2022/03/07 11:03:39;;;;;;;18.38;2.13;;;;;;;;;;4965558;28;20114;-59
2022/03/07 11:06:05;;;;;;;2.67;0.60;;;;;;;;;;4965901;28;20038;-58
2022/03/07 11:08:31;;;;;;;13.35;1.85;;;;;;;;;;4962016;28;20050;-59
2022/03/07 11:10:58;;;;;;;13.60;1.17;;;;;;;;;;4972077;28;20053;-59
2022/03/07 11:13:27;;;;;;;4.78;1.10;;;;;;;;;;4977609;28;20019;-59
2022/03/07 11:16:01;;;;;;;12.85;1.52;;;;;;;;;;4981094;28;20506;-58
2022/03/07 11:18:28;;;;;;;9.57;1.20;;;;;;;;;;4959256;28;20200;-59
2022/03/07 11:20:55;;;;;;;26.77;2.25;;;;;;;;;;4959060;28;20409;-59
2022/03/07 11:23:21;;;;;;;15.27;1.38;;;;;;;;;;4963275;28;20046;-59
2022/03/07 11:25:53;;;;;;;13.57;1.20;;;;;;;;;;4963078;28;20303;-58
2022/03/07 11:28:22;;;;;;;3.97;0.98;;;;;;;;;;4963853;28;20039;-58
2022/03/07 11:30:48;;;;;;;13.70;1.33;;;;;;;;;;4964345;28;20050;-58
2022/03/07 11:33:29;;;;;;;4.57;0.85;;;;;;;;;;4964416;28;20113;-58
2022/03/07 11:35:55;;;;;;;9.77;1.20;;;;;;;;;;4966676;28;20105;-57
2022/03/07 11:38:28;;;;;;;20.02;1.25;;;;;;;;;;4963303;28;20688;-59
2022/03/07 11:41:02;;;;;;;10.10;1.40;;;;;;;;;;4965044;28;20250;-58
2022/03/07 11:43:46;;;;;;;7.38;0.88;;;;;;;;;;4961182;28;20117;-59
2022/03/07 11:46:40;;;;;;;14.40;2.30;;;;;;;;;;4966798;28;20023;-58
2022/03/07 11:49:11;;;;;;;25.98;1.40;;;;;;;;;;4964781;28;20138;-58
2022/03/07 11:51:39;;;;;;;17.92;2.28;;;;;;;;;;4967689;28;20081;-59
2022/03/07 11:54:06;;;;;;;7.35;1.08;;;;;;;;;;4963360;28;20023;-59
2022/03/07 11:56:37;;;;;;;11.18;1.30;;;;;;;;;;4966089;28;20117;-58
2022/03/07 11:59:11;;;;;;;9.85;1.20;;;;;;;;;;4964167;28;20493;-59
2022/03/07 12:01:37;;;;;;;15.82;1.20;;;;;;;;;;4965825;28;20042;-59
2022/03/07 12:04:14;;;;;;;8.27;1.40;;;;;;;;;;4963975;28;20034;-59
2022/03/07 12:06:46;;;;;;;12.70;1.00;;;;;;;;;;4958951;28;20030;-59
2022/03/07 12:09:26;;;;;;;16.40;1.30;;;;;;;;;;4961232;28;20047;-59
2022/03/07 12:12:14;;;;;;;26.70;2.28;;;;;;;;;;4963871;28;20127;-59
2022/03/07 12:14:42;;;;;;;17.42;1.92;;;;;;;;;;4959833;28;20027;-59
2022/03/07 12:17:20;;;;;;;9.70;0.98;;;;;;;;;;4962859;28;20170;-59
2022/03/07 12:19:54;;;;;;;14.57;1.60;;;;;;;;;;4963675;28;20162;-59
2022/03/07 12:22:22;;;;;;;18.42;2.25;;;;;;;;;;4962620;28;20035;-58
2022/03/07 12:24:48;;;;;;;16.05;2.53;;;;;;;;;;4961582;28;20034;-59
2022/03/07 12:27:13;;;;;;;12.02;1.65;;;;;;;;;;4962485;28;20035;-59
2022/03/07 12:29:43;;;;;;;20.90;1.27;;;;;;;;;;4964747;28;20576;-60
2022/03/07 12:32:09;;;;;;;9.80;1.25;;;;;;;;;;4963824;28;20034;-60
2022/03/07 12:34:41;;;;;;;13.65;1.63;;;;;;;;;;4962435;28;20027;-59
2022/03/07 12:37:18;;;;;;;23.23;1.58;;;;;;;;;;4960544;28;20054;-60
2022/03/07 12:39:58;;;;;;;14.05;1.38;;;;;;;;;;4962137;28;20031;-60
2022/03/07 12:42:27;;;;;;;10.73;1.60;;;;;;;;;;4966411;28;20030;-60
2022/03/07 12:44:53;;;;;;;9.77;1.35;;;;;;;;;;4963770;28;20065;-60
2022/03/07 12:47:27;;;;;;;15.50;1.38;;;;;;;;;;4956889;28;20046;-59
2022/03/07 12:49:53;;;;;;;15.30;1.60;;;;;;;;;;4960303;28;20030;-60
2022/03/07 12:52:33;;;;;;;22.98;2.00;;;;;;;;;;4960576;28;20147;-59
2022/03/07 12:55:01;;;;;;;12.05;1.15;;;;;;;;;;4956327;28;20122;-59
2022/03/07 12:57:28;;;;;;;12.02;1.30;;;;;;;;;;4965773;28;20041;-58
2022/03/07 13:00:15;;;;;;;12.30;1.88;;;;;;;;;;4964824;28;20042;-59
2022/03/07 13:02:43;;;;;;;18.27;1.20;;;;;;;;;;4955683;28;20569;-59
2022/03/07 13:05:11;;;;;;;12.90;1.13;;;;;;;;;;4966195;28;20092;-59
2022/03/07 13:07:37;;;;;;;19.48;1.45;;;;;;;;;;4963371;28;20054;-59
2022/03/07 13:10:11;;;;;;;7.10;1.65;;;;;;;;;;4960794;28;20039;-59
2022/03/07 13:12:38;;;;;;;27.08;1.67;;;;;;;;;;4962702;28;20030;-59
2022/03/07 13:15:06;;;;;;;17.42;2.25;;;;;;;;;;4965666;28;20031;-59
2022/03/07 13:17:31;;;;;;;16.30;1.27;;;;;;;;;;4956371;28;20030;-59
2022/03/07 13:19:57;;;;;;;10.02;0.75;;;;;;;;;;4961227;28;20085;-60
2022/03/07 13:22:23;;;;;;;16.15;1.20;;;;;;;;;;4957903;28;20047;-59
2022/03/07 13:24:50;;;;;;;13.30;1.63;;;;;;;;;;4959143;28;20027;-58
2022/03/07 13:27:16;;;;;;;17.42;1.08;;;;;;;;;;4963009;28;20556;-59
2022/03/07 13:29:44;;;;;;;16.80;1.63;;;;;;;;;;4959582;28;20097;-61
2022/03/07 13:32:13;;;;;;;8.10;1.08;;;;;;;;;;4961910;28;20031;-60
2022/03/07 13:34:52;;;;;;;10.18;0.98;;;;;;;;;;4962607;28;20026;-60
2022/03/07 13:37:22;;;;;;;13.82;1.05;;;;;;;;;;4964130;28;20052;-58
2022/03/07 13:40:05;;;;;;;15.80;1.23;;;;;;;;;;4958342;28;20035;-59
2022/03/07 13:42:42;;;;;;;14.93;1.50;;;;;;;;;;4962170;28;20093;-59
2022/03/07 13:45:23;;;;;;;14.70;1.00;;;;;;;;;;4963608;28;20061;-59
2022/03/07 13:48:12;;;;;;;13.85;1.73;;;;;;;;;;4956899;28;20023;-59
2022/03/07 13:50:45;;;;;;;11.55;1.13;;;;;;;;;;4959610;28;20042;-59
2022/03/07 13:53:16;;;;;;;14.63;1.45;;;;;;;;;;4958240;28;20118;-59
2022/03/07 13:56:01;;;;;;;17.40;1.90;;;;;;;;;;4961251;28;20035;-59
2022/03/07 13:58:31;;;;;;;4.18;0.77;;;;;;;;;;4959276;28;20285;-60
2022/03/07 14:01:06;;;;;;;10.95;1.40;;;;;;;;;;4959897;28;20031;-60
2022/03/07 14:03:32;;;;;;;11.93;1.27;;;;;;;;;;4977361;28;20278;-60
2022/03/07 14:05:59;;;;;;;8.13;0.90;;;;;;;;;;4959162;28;20537;-59
2022/03/07 14:08:42;;;;;;;20.88;1.23;;;;;;;;;;4964033;28;20058;-59
2022/03/07 14:11:13;;;;;;;14.32;1.20;;;;;;;;;;4961949;28;20051;-59
2022/03/07 14:13:44;;;;;;;15.05;1.80;;;;;;;;;;4962960;28;20296;-60
2022/03/07 14:16:11;;;;;;;17.77;2.03;;;;;;;;;;4962300;28;20026;-60
2022/03/07 14:18:37;;;;;;;16.52;1.83;;;;;;;;;;4957828;28;20085;-59
2022/03/07 14:21:03;;;;;;;15.48;2.28;;;;;;;;;;4956825;28;20043;-59
2022/03/07 14:23:28;;;;;;;11.13;1.40;;;;;;;;;;4956497;28;20058;-58
2022/03/07 14:25:55;;;;;;;8.93;1.60;;;;;;;;;;4955002;28;20390;-59
2022/03/07 14:28:20;;;;;;;10.10;1.55;;;;;;;;;;4963326;28;21470;-60
2022/03/07 14:30:46;;;;;;;18.50;1.38;;;;;;;;;;4961914;28;20121;-60
2022/03/07 14:33:12;;;;;;;18.55;2.28;;;;;;;;;;4960669;28;20030;-60
2022/03/07 14:35:37;;;;;;;14.55;2.45;;;;;;;;;;4956773;28;21571;-57